sensor_id;sensor_type;location;lat;lon;timestamp;P1;durP1;ratioP1;P2;durP2;ratioP2
42096;SDS011;27754;45.414;11.084;2023-12-20T00:02:16;37.65;;;23.40;;
42096;SDS011;27754;45.414;11.084;2023-12-20T00:04:43;44.10;;;24.85;;
42096;SDS011;27754;45.414;11.084;2023-12-20T00:07:10;37.47;;;24.27;;
42096;SDS011;27754;45.414;11.084;2023-12-20T00:09:38;36.92;;;24.50;;
42096;SDS011;27754;45.414;11.084;2023-12-20T00:12:05;35.70;;;22.35;;
42096;SDS011;27754;45.414;11.084;2023-12-20T00:14:32;31.92;;;21.35;;
42096;SDS011;27754;45.414;11.084;2023-12-20T00:16:59;39.20;;;23.10;;
42096;SDS011;27754;45.414;11.084;2023-12-20T00:19:26;31.75;;;20.83;;
42096;SDS011;27754;45.414;11.084;2023-12-20T00:21:53;36.83;;;22.40;;
42096;SDS011;27754;45.414;11.084;2023-12-20T00:24:20;35.35;;;21.20;;
42096;SDS011;27754;45.414;11.084;2023-12-20T00:26:47;36.15;;;22.05;;
42096;SDS011;27754;45.414;11.084;2023-12-20T00:29:14;33.40;;;21.50;;
42096;SDS011;27754;45.414;11.084;2023-12-20T00:31:41;33.53;;;20.98;;
42096;SDS011;27754;45.414;11.084;2023-12-20T00:34:08;32.58;;;20.75;;
42096;SDS011;27754;45.414;11.084;2023-12-20T00:36:35;27.50;;;18.65;;
42096;SDS011;27754;45.414;11.084;2023-12-20T00:39:03;31.98;;;20.35;;
42096;SDS011;27754;45.414;11.084;2023-12-20T00:41:30;35.88;;;20.60;;
42096;SDS011;27754;45.414;11.084;2023-12-20T00:43:57;32.53;;;21.30;;
42096;SDS011;27754;45.414;11.084;2023-12-20T00:46:24;34.10;;;19.77;;
42096;SDS011;27754;45.414;11.084;2023-12-20T00:48:51;34.17;;;19.77;;
42096;SDS011;27754;45.414;11.084;2023-12-20T00:51:18;31.35;;;20.02;;
42096;SDS011;27754;45.414;11.084;2023-12-20T00:53:45;39.53;;;21.17;;
42096;SDS011;27754;45.414;11.084;2023-12-20T00:56:16;35.22;;;22.10;;
42096;SDS011;27754;45.414;11.084;2023-12-20T00:58:44;40.97;;;21.48;;
42096;SDS011;27754;45.414;11.084;2023-12-20T01:01:11;35.47;;;20.95;;
42096;SDS011;27754;45.414;11.084;2023-12-20T01:03:39;35.45;;;20.45;;
42096;SDS011;27754;45.414;11.084;2023-12-20T01:06:06;34.80;;;20.25;;
42096;SDS011;27754;45.414;11.084;2023-12-20T01:08:33;36.60;;;22.35;;
42096;SDS011;27754;45.414;11.084;2023-12-20T01:11:03;36.97;;;21.55;;
42096;SDS011;27754;45.414;11.084;2023-12-20T01:13:31;36.05;;;21.05;;
42096;SDS011;27754;45.414;11.084;2023-12-20T01:15:58;30.08;;;20.58;;
42096;SDS011;27754;45.414;11.084;2023-12-20T01:18:26;28.55;;;20.10;;
42096;SDS011;27754;45.414;11.084;2023-12-20T01:20:53;35.35;;;21.80;;
42096;SDS011;27754;45.414;11.084;2023-12-20T01:23:20;37.13;;;23.13;;
42096;SDS011;27754;45.414;11.084;2023-12-20T01:25:47;38.80;;;23.73;;
42096;SDS011;27754;45.414;11.084;2023-12-20T01:28:15;34.03;;;21.83;;
42096;SDS011;27754;45.414;11.084;2023-12-20T01:30:42;35.28;;;22.30;;
42096;SDS011;27754;45.414;11.084;2023-12-20T01:33:09;36.75;;;21.80;;
42096;SDS011;27754;45.414;11.084;2023-12-20T01:35:36;34.33;;;20.42;;
42096;SDS011;27754;45.414;11.084;2023-12-20T01:38:03;31.00;;;20.40;;
42096;SDS011;27754;45.414;11.084;2023-12-20T01:40:30;36.67;;;20.92;;
42096;SDS011;27754;45.414;11.084;2023-12-20T01:43:01;32.63;;;19.10;;
42096;SDS011;27754;45.414;11.084;2023-12-20T01:45:31;29.98;;;18.77;;
42096;SDS011;27754;45.414;11.084;2023-12-20T01:47:58;30.23;;;18.63;;
42096;SDS011;27754;45.414;11.084;2023-12-20T01:50:26;34.40;;;20.25;;
42096;SDS011;27754;45.414;11.084;2023-12-20T01:52:55;31.83;;;19.92;;
42096;SDS011;27754;45.414;11.084;2023-12-20T01:55:27;33.10;;;20.42;;
42096;SDS011;27754;45.414;11.084;2023-12-20T01:57:57;27.08;;;18.33;;
42096;SDS011;27754;45.414;11.084;2023-12-20T02:00:26;31.45;;;20.23;;
42096;SDS011;27754;45.414;11.084;2023-12-20T02:02:55;29.58;;;19.13;;
42096;SDS011;27754;45.414;11.084;2023-12-20T02:05:27;29.05;;;18.88;;
42096;SDS011;27754;45.414;11.084;2023-12-20T02:07:55;31.98;;;20.42;;
42096;SDS011;27754;45.414;11.084;2023-12-20T02:10:23;24.48;;;16.05;;
42096;SDS011;27754;45.414;11.084;2023-12-20T02:12:50;27.50;;;16.92;;
42096;SDS011;27754;45.414;11.084;2023-12-20T02:15:18;28.33;;;18.10;;
42096;SDS011;27754;45.414;11.084;2023-12-20T02:17:45;28.85;;;18.13;;
42096;SDS011;27754;45.414;11.084;2023-12-20T02:20:15;25.05;;;16.90;;
42096;SDS011;27754;45.414;11.084;2023-12-20T02:22:42;28.35;;;16.60;;
42096;SDS011;27754;45.414;11.084;2023-12-20T02:25:09;28.60;;;18.15;;
42096;SDS011;27754;45.414;11.084;2023-12-20T02:27:36;34.90;;;18.08;;
42096;SDS011;27754;45.414;11.084;2023-12-20T02:30:03;32.08;;;18.52;;
42096;SDS011;27754;45.414;11.084;2023-12-20T02:32:30;30.05;;;18.83;;
42096;SDS011;27754;45.414;11.084;2023-12-20T02:34:58;30.65;;;18.65;;
42096;SDS011;27754;45.414;11.084;2023-12-20T02:37:25;30.15;;;17.73;;
42096;SDS011;27754;45.414;11.084;2023-12-20T02:39:52;26.73;;;15.48;;
42096;SDS011;27754;45.414;11.084;2023-12-20T02:42:19;27.65;;;16.42;;
42096;SDS011;27754;45.414;11.084;2023-12-20T02:44:46;29.05;;;16.95;;
42096;SDS011;27754;45.414;11.084;2023-12-20T02:47:13;27.48;;;17.00;;
42096;SDS011;27754;45.414;11.084;2023-12-20T02:49:40;26.08;;;16.70;;
42096;SDS011;27754;45.414;11.084;2023-12-20T02:52:07;26.55;;;14.85;;
42096;SDS011;27754;45.414;11.084;2023-12-20T02:54:34;28.30;;;15.43;;
42096;SDS011;27754;45.414;11.084;2023-12-20T02:57:01;23.20;;;14.85;;
42096;SDS011;27754;45.414;11.084;2023-12-20T02:59:28;24.83;;;15.65;;
42096;SDS011;27754;45.414;11.084;2023-12-20T03:01:55;33.67;;;19.88;;
42096;SDS011;27754;45.414;11.084;2023-12-20T03:04:22;29.23;;;17.35;;
42096;SDS011;27754;45.414;11.084;2023-12-20T03:06:49;29.05;;;15.90;;
42096;SDS011;27754;45.414;11.084;2023-12-20T03:09:16;27.75;;;16.98;;
42096;SDS011;27754;45.414;11.084;2023-12-20T03:11:43;25.98;;;16.88;;
42096;SDS011;27754;45.414;11.084;2023-12-20T03:14:10;31.05;;;16.45;;
42096;SDS011;27754;45.414;11.084;2023-12-20T03:16:37;26.83;;;15.80;;
42096;SDS011;27754;45.414;11.084;2023-12-20T03:19:04;26.05;;;16.02;;
42096;SDS011;27754;45.414;11.084;2023-12-20T03:21:31;23.85;;;14.65;;
42096;SDS011;27754;45.414;11.084;2023-12-20T03:23:58;25.08;;;15.25;;
42096;SDS011;27754;45.414;11.084;2023-12-20T03:26:25;29.15;;;16.33;;
42096;SDS011;27754;45.414;11.084;2023-12-20T03:28:52;25.02;;;16.02;;
42096;SDS011;27754;45.414;11.084;2023-12-20T03:31:19;24.15;;;15.07;;
42096;SDS011;27754;45.414;11.084;2023-12-20T03:33:47;24.13;;;15.52;;
42096;SDS011;27754;45.414;11.084;2023-12-20T03:36:14;25.67;;;15.40;;
42096;SDS011;27754;45.414;11.084;2023-12-20T03:38:41;24.20;;;16.02;;
42096;SDS011;27754;45.414;11.084;2023-12-20T03:41:08;25.23;;;14.85;;
42096;SDS011;27754;45.414;11.084;2023-12-20T03:43:35;22.88;;;14.90;;
42096;SDS011;27754;45.414;11.084;2023-12-20T03:46:03;27.73;;;16.25;;
42096;SDS011;27754;45.414;11.084;2023-12-20T03:48:30;24.15;;;15.35;;
42096;SDS011;27754;45.414;11.084;2023-12-20T03:50:58;25.17;;;15.88;;
42096;SDS011;27754;45.414;11.084;2023-12-20T03:53:25;27.52;;;16.08;;
42096;SDS011;27754;45.414;11.084;2023-12-20T03:55:52;25.13;;;15.43;;
42096;SDS011;27754;45.414;11.084;2023-12-20T03:58:19;27.98;;;15.57;;
42096;SDS011;27754;45.414;11.084;2023-12-20T04:00:46;26.35;;;16.13;;
42096;SDS011;27754;45.414;11.084;2023-12-20T04:03:13;23.63;;;15.63;;
42096;SDS011;27754;45.414;11.084;2023-12-20T04:05:40;23.23;;;15.27;;
42096;SDS011;27754;45.414;11.084;2023-12-20T04:08:08;27.63;;;16.38;;
42096;SDS011;27754;45.414;11.084;2023-12-20T04:10:36;24.50;;;15.15;;
42096;SDS011;27754;45.414;11.084;2023-12-20T04:13:04;23.02;;;14.10;;
42096;SDS011;27754;45.414;11.084;2023-12-20T04:15:31;24.00;;;14.00;;
42096;SDS011;27754;45.414;11.084;2023-12-20T04:17:58;23.05;;;13.50;;
42096;SDS011;27754;45.414;11.084;2023-12-20T04:20:25;21.48;;;14.00;;
42096;SDS011;27754;45.414;11.084;2023-12-20T04:22:52;22.20;;;13.02;;
42096;SDS011;27754;45.414;11.084;2023-12-20T04:25:19;27.52;;;14.35;;
42096;SDS011;27754;45.414;11.084;2023-12-20T04:27:47;26.50;;;12.80;;
42096;SDS011;27754;45.414;11.084;2023-12-20T04:30:14;26.00;;;14.13;;
42096;SDS011;27754;45.414;11.084;2023-12-20T04:32:41;22.85;;;14.15;;
42096;SDS011;27754;45.414;11.084;2023-12-20T04:35:08;27.92;;;16.92;;
42096;SDS011;27754;45.414;11.084;2023-12-20T04:37:35;22.05;;;14.25;;
42096;SDS011;27754;45.414;11.084;2023-12-20T04:40:03;20.42;;;13.60;;
42096;SDS011;27754;45.414;11.084;2023-12-20T04:42:31;25.00;;;13.55;;
42096;SDS011;27754;45.414;11.084;2023-12-20T04:44:58;22.35;;;13.88;;
42096;SDS011;27754;45.414;11.084;2023-12-20T04:47:25;24.75;;;13.70;;
42096;SDS011;27754;45.414;11.084;2023-12-20T04:49:53;28.05;;;14.88;;
42096;SDS011;27754;45.414;11.084;2023-12-20T04:52:20;24.95;;;14.52;;
42096;SDS011;27754;45.414;11.084;2023-12-20T04:54:47;22.40;;;13.85;;
42096;SDS011;27754;45.414;11.084;2023-12-20T04:57:14;24.48;;;15.13;;
42096;SDS011;27754;45.414;11.084;2023-12-20T04:59:41;23.42;;;13.88;;
42096;SDS011;27754;45.414;11.084;2023-12-20T05:02:08;27.35;;;15.65;;
42096;SDS011;27754;45.414;11.084;2023-12-20T05:04:35;23.90;;;14.13;;
42096;SDS011;27754;45.414;11.084;2023-12-20T05:07:03;21.80;;;13.55;;
42096;SDS011;27754;45.414;11.084;2023-12-20T05:09:32;26.27;;;15.00;;
42096;SDS011;27754;45.414;11.084;2023-12-20T05:11:59;27.65;;;15.02;;
42096;SDS011;27754;45.414;11.084;2023-12-20T05:14:26;41.08;;;16.35;;
42096;SDS011;27754;45.414;11.084;2023-12-20T05:16:53;28.92;;;16.08;;
42096;SDS011;27754;45.414;11.084;2023-12-20T05:19:20;32.42;;;17.50;;
42096;SDS011;27754;45.414;11.084;2023-12-20T05:21:48;31.38;;;18.05;;
42096;SDS011;27754;45.414;11.084;2023-12-20T05:24:16;30.67;;;19.27;;
42096;SDS011;27754;45.414;11.084;2023-12-20T05:26:43;35.90;;;17.77;;
42096;SDS011;27754;45.414;11.084;2023-12-20T05:29:09;30.20;;;17.85;;
42096;SDS011;27754;45.414;11.084;2023-12-20T05:31:36;31.15;;;17.33;;
42096;SDS011;27754;45.414;11.084;2023-12-20T05:34:03;30.60;;;16.65;;
42096;SDS011;27754;45.414;11.084;2023-12-20T05:36:31;28.35;;;17.35;;
42096;SDS011;27754;45.414;11.084;2023-12-20T05:38:58;29.60;;;17.35;;
42096;SDS011;27754;45.414;11.084;2023-12-20T05:41:25;28.42;;;17.13;;
42096;SDS011;27754;45.414;11.084;2023-12-20T05:43:52;31.08;;;17.08;;
42096;SDS011;27754;45.414;11.084;2023-12-20T05:46:18;28.05;;;16.60;;
42096;SDS011;27754;45.414;11.084;2023-12-20T05:48:46;28.38;;;15.38;;
42096;SDS011;27754;45.414;11.084;2023-12-20T05:51:13;27.40;;;16.92;;
42096;SDS011;27754;45.414;11.084;2023-12-20T05:53:40;26.73;;;15.20;;
42096;SDS011;27754;45.414;11.084;2023-12-20T05:56:07;26.52;;;14.73;;
42096;SDS011;27754;45.414;11.084;2023-12-20T05:58:34;30.98;;;16.40;;
42096;SDS011;27754;45.414;11.084;2023-12-20T06:01:03;26.58;;;16.30;;
42096;SDS011;27754;45.414;11.084;2023-12-20T06:03:31;36.22;;;16.65;;
42096;SDS011;27754;45.414;11.084;2023-12-20T06:05:58;39.50;;;17.02;;
42096;SDS011;27754;45.414;11.084;2023-12-20T06:08:41;25.42;;;14.38;;
42096;SDS011;27754;45.414;11.084;2023-12-20T06:11:09;28.30;;;16.73;;
42096;SDS011;27754;45.414;11.084;2023-12-20T06:13:36;27.20;;;14.95;;
42096;SDS011;27754;45.414;11.084;2023-12-20T06:16:05;26.00;;;14.85;;
42096;SDS011;27754;45.414;11.084;2023-12-20T06:18:33;30.60;;;15.63;;
42096;SDS011;27754;45.414;11.084;2023-12-20T06:21:00;28.35;;;15.25;;
42096;SDS011;27754;45.414;11.084;2023-12-20T06:23:28;25.80;;;14.75;;
42096;SDS011;27754;45.414;11.084;2023-12-20T06:25:55;29.65;;;15.93;;
42096;SDS011;27754;45.414;11.084;2023-12-20T06:28:23;27.20;;;15.60;;
42096;SDS011;27754;45.414;11.084;2023-12-20T06:30:50;25.45;;;15.80;;
42096;SDS011;27754;45.414;11.084;2023-12-20T06:33:19;28.55;;;15.88;;
42096;SDS011;27754;45.414;11.084;2023-12-20T06:35:48;24.00;;;15.95;;
42096;SDS011;27754;45.414;11.084;2023-12-20T06:38:15;27.52;;;16.08;;
42096;SDS011;27754;45.414;11.084;2023-12-20T06:40:45;29.30;;;15.63;;
42096;SDS011;27754;45.414;11.084;2023-12-20T06:43:12;27.02;;;15.05;;
42096;SDS011;27754;45.414;11.084;2023-12-20T06:45:58;28.30;;;15.68;;
42096;SDS011;27754;45.414;11.084;2023-12-20T06:48:26;24.83;;;13.48;;
42096;SDS011;27754;45.414;11.084;2023-12-20T06:50:53;27.38;;;13.80;;
42096;SDS011;27754;45.414;11.084;2023-12-20T06:53:20;42.42;;;17.00;;
42096;SDS011;27754;45.414;11.084;2023-12-20T06:55:47;24.90;;;13.55;;
42096;SDS011;27754;45.414;11.084;2023-12-20T06:58:14;24.90;;;14.25;;
42096;SDS011;27754;45.414;11.084;2023-12-20T07:00:42;26.13;;;15.23;;
42096;SDS011;27754;45.414;11.084;2023-12-20T07:03:09;32.67;;;16.05;;
42096;SDS011;27754;45.414;11.084;2023-12-20T07:05:36;28.50;;;14.73;;
42096;SDS011;27754;45.414;11.084;2023-12-20T07:08:04;25.02;;;13.50;;
42096;SDS011;27754;45.414;11.084;2023-12-20T07:10:31;24.83;;;15.93;;
42096;SDS011;27754;45.414;11.084;2023-12-20T07:12:59;29.67;;;15.15;;
42096;SDS011;27754;45.414;11.084;2023-12-20T07:15:26;33.72;;;16.40;;
42096;SDS011;27754;45.414;11.084;2023-12-20T07:17:53;30.08;;;15.43;;
42096;SDS011;27754;45.414;11.084;2023-12-20T07:20:20;31.25;;;15.73;;
42096;SDS011;27754;45.414;11.084;2023-12-20T07:22:48;28.23;;;15.38;;
42096;SDS011;27754;45.414;11.084;2023-12-20T07:25:15;30.02;;;15.73;;
42096;SDS011;27754;45.414;11.084;2023-12-20T07:27:42;31.20;;;17.00;;
42096;SDS011;27754;45.414;11.084;2023-12-20T07:30:11;34.15;;;15.85;;
42096;SDS011;27754;45.414;11.084;2023-12-20T07:32:38;33.25;;;17.02;;
42096;SDS011;27754;45.414;11.084;2023-12-20T07:35:05;30.20;;;17.35;;
42096;SDS011;27754;45.414;11.084;2023-12-20T07:37:33;30.25;;;17.63;;
42096;SDS011;27754;45.414;11.084;2023-12-20T07:40:01;32.03;;;17.27;;
42096;SDS011;27754;45.414;11.084;2023-12-20T07:42:30;28.80;;;16.27;;
42096;SDS011;27754;45.414;11.084;2023-12-20T07:44:57;32.25;;;15.65;;
42096;SDS011;27754;45.414;11.084;2023-12-20T07:47:23;29.48;;;17.25;;
42096;SDS011;27754;45.414;11.084;2023-12-20T07:49:51;30.48;;;16.77;;
42096;SDS011;27754;45.414;11.084;2023-12-20T07:52:19;40.35;;;20.52;;
42096;SDS011;27754;45.414;11.084;2023-12-20T07:54:48;42.97;;;19.10;;
42096;SDS011;27754;45.414;11.084;2023-12-20T07:57:15;38.70;;;19.42;;
42096;SDS011;27754;45.414;11.084;2023-12-20T07:59:42;37.50;;;19.40;;
42096;SDS011;27754;45.414;11.084;2023-12-20T08:02:10;33.58;;;17.20;;
42096;SDS011;27754;45.414;11.084;2023-12-20T08:04:38;27.13;;;16.40;;
42096;SDS011;27754;45.414;11.084;2023-12-20T08:09:48;39.10;;;17.17;;
42096;SDS011;27754;45.414;11.084;2023-12-20T08:12:15;41.47;;;18.45;;
42096;SDS011;27754;45.414;11.084;2023-12-20T08:14:43;42.47;;;17.73;;
42096;SDS011;27754;45.414;11.084;2023-12-20T08:17:10;37.03;;;18.65;;
42096;SDS011;27754;45.414;11.084;2023-12-20T08:19:37;46.65;;;20.48;;
42096;SDS011;27754;45.414;11.084;2023-12-20T08:22:04;39.10;;;18.58;;
42096;SDS011;27754;45.414;11.084;2023-12-20T08:24:31;40.47;;;18.38;;
42096;SDS011;27754;45.414;11.084;2023-12-20T08:26:58;38.85;;;20.33;;
42096;SDS011;27754;45.414;11.084;2023-12-20T08:29:25;43.55;;;20.60;;
42096;SDS011;27754;45.414;11.084;2023-12-20T08:31:52;46.70;;;21.65;;
42096;SDS011;27754;45.414;11.084;2023-12-20T08:34:20;42.33;;;21.75;;
42096;SDS011;27754;45.414;11.084;2023-12-20T08:36:47;39.10;;;18.73;;
42096;SDS011;27754;45.414;11.084;2023-12-20T08:39:14;34.80;;;17.85;;
42096;SDS011;27754;45.414;11.084;2023-12-20T08:41:42;37.38;;;17.15;;
42096;SDS011;27754;45.414;11.084;2023-12-20T08:44:09;30.00;;;16.20;;
42096;SDS011;27754;45.414;11.084;2023-12-20T08:46:36;26.05;;;16.05;;
42096;SDS011;27754;45.414;11.084;2023-12-20T08:49:03;38.53;;;17.55;;
42096;SDS011;27754;45.414;11.084;2023-12-20T08:51:30;35.13;;;16.20;;
42096;SDS011;27754;45.414;11.084;2023-12-20T08:53:57;31.00;;;16.92;;
42096;SDS011;27754;45.414;11.084;2023-12-20T08:56:24;45.80;;;17.08;;
42096;SDS011;27754;45.414;11.084;2023-12-20T08:58:51;42.50;;;16.23;;
42096;SDS011;27754;45.414;11.084;2023-12-20T09:01:18;39.40;;;16.63;;
42096;SDS011;27754;45.414;11.084;2023-12-20T09:03:45;29.27;;;14.85;;
42096;SDS011;27754;45.414;11.084;2023-12-20T09:06:12;36.97;;;16.77;;
42096;SDS011;27754;45.414;11.084;2023-12-20T09:08:39;34.47;;;16.00;;
42096;SDS011;27754;45.414;11.084;2023-12-20T09:11:06;34.72;;;16.95;;
42096;SDS011;27754;45.414;11.084;2023-12-20T09:13:34;25.40;;;15.32;;
42096;SDS011;27754;45.414;11.084;2023-12-20T09:16:02;32.75;;;17.27;;
42096;SDS011;27754;45.414;11.084;2023-12-20T09:18:29;30.33;;;16.88;;
42096;SDS011;27754;45.414;11.084;2023-12-20T09:20:56;35.70;;;16.67;;
42096;SDS011;27754;45.414;11.084;2023-12-20T09:23:23;28.70;;;14.82;;
42096;SDS011;27754;45.414;11.084;2023-12-20T09:25:50;42.60;;;17.17;;
42096;SDS011;27754;45.414;11.084;2023-12-20T09:28:20;30.50;;;18.00;;
42096;SDS011;27754;45.414;11.084;2023-12-20T09:30:47;29.52;;;17.75;;
42096;SDS011;27754;45.414;11.084;2023-12-20T09:33:14;32.15;;;17.42;;
42096;SDS011;27754;45.414;11.084;2023-12-20T09:35:42;38.30;;;19.52;;
42096;SDS011;27754;45.414;11.084;2023-12-20T09:38:10;30.65;;;16.77;;
42096;SDS011;27754;45.414;11.084;2023-12-20T09:40:40;28.67;;;17.35;;
42096;SDS011;27754;45.414;11.084;2023-12-20T09:43:11;30.17;;;16.65;;
42096;SDS011;27754;45.414;11.084;2023-12-20T09:45:43;28.45;;;15.98;;
42096;SDS011;27754;45.414;11.084;2023-12-20T09:48:13;32.03;;;17.55;;
42096;SDS011;27754;45.414;11.084;2023-12-20T09:50:42;36.65;;;17.90;;
42096;SDS011;27754;45.414;11.084;2023-12-20T09:53:17;31.20;;;17.33;;
42096;SDS011;27754;45.414;11.084;2023-12-20T09:55:47;29.23;;;17.10;;
42096;SDS011;27754;45.414;11.084;2023-12-20T09:58:15;31.08;;;17.10;;
42096;SDS011;27754;45.414;11.084;2023-12-20T10:00:42;35.03;;;18.73;;
42096;SDS011;27754;45.414;11.084;2023-12-20T10:03:09;42.28;;;20.35;;
42096;SDS011;27754;45.414;11.084;2023-12-20T10:05:38;35.42;;;20.60;;
42096;SDS011;27754;45.414;11.084;2023-12-20T10:08:09;41.30;;;23.92;;
42096;SDS011;27754;45.414;11.084;2023-12-20T10:10:36;38.92;;;22.55;;
42096;SDS011;27754;45.414;11.084;2023-12-20T10:13:13;38.28;;;20.15;;
42096;SDS011;27754;45.414;11.084;2023-12-20T10:15:42;31.90;;;20.00;;
42096;SDS011;27754;45.414;11.084;2023-12-20T10:18:09;35.45;;;21.27;;
42096;SDS011;27754;45.414;11.084;2023-12-20T10:20:40;42.35;;;20.45;;
42096;SDS011;27754;45.414;11.084;2023-12-20T10:23:09;42.28;;;21.23;;
42096;SDS011;27754;45.414;11.084;2023-12-20T10:25:37;41.90;;;19.33;;
42096;SDS011;27754;45.414;11.084;2023-12-20T10:28:14;37.47;;;20.23;;
42096;SDS011;27754;45.414;11.084;2023-12-20T10:30:46;43.33;;;21.20;;
42096;SDS011;27754;45.414;11.084;2023-12-20T10:33:22;36.47;;;20.17;;
42096;SDS011;27754;45.414;11.084;2023-12-20T10:35:54;41.80;;;21.10;;
42096;SDS011;27754;45.414;11.084;2023-12-20T10:38:22;48.35;;;21.35;;
42096;SDS011;27754;45.414;11.084;2023-12-20T10:40:50;46.25;;;21.52;;
42096;SDS011;27754;45.414;11.084;2023-12-20T10:43:23;52.67;;;24.13;;
42096;SDS011;27754;45.414;11.084;2023-12-20T10:45:53;47.42;;;24.88;;
42096;SDS011;27754;45.414;11.084;2023-12-20T10:48:21;45.28;;;21.70;;
42096;SDS011;27754;45.414;11.084;2023-12-20T10:50:54;39.75;;;23.08;;
42096;SDS011;27754;45.414;11.084;2023-12-20T10:53:22;44.78;;;22.58;;
42096;SDS011;27754;45.414;11.084;2023-12-20T10:55:51;41.35;;;21.42;;
42096;SDS011;27754;45.414;11.084;2023-12-20T10:58:21;39.97;;;21.95;;
42096;SDS011;27754;45.414;11.084;2023-12-20T11:00:50;33.15;;;20.70;;
42096;SDS011;27754;45.414;11.084;2023-12-20T11:03:26;39.05;;;21.98;;
42096;SDS011;27754;45.414;11.084;2023-12-20T11:05:58;37.83;;;20.42;;
42096;SDS011;27754;45.414;11.084;2023-12-20T11:12:10;34.95;;;20.17;;
42096;SDS011;27754;45.414;11.084;2023-12-20T11:14:46;35.92;;;20.35;;
42096;SDS011;27754;45.414;11.084;2023-12-20T11:17:15;39.42;;;23.58;;
42096;SDS011;27754;45.414;11.084;2023-12-20T11:22:22;36.42;;;22.33;;
42096;SDS011;27754;45.414;11.084;2023-12-20T11:24:53;38.03;;;22.40;;
42096;SDS011;27754;45.414;11.084;2023-12-20T11:27:22;43.13;;;22.92;;
42096;SDS011;27754;45.414;11.084;2023-12-20T11:29:56;44.10;;;23.33;;
42096;SDS011;27754;45.414;11.084;2023-12-20T11:32:27;36.85;;;23.92;;
42096;SDS011;27754;45.414;11.084;2023-12-20T11:34:58;40.70;;;23.02;;
42096;SDS011;27754;45.414;11.084;2023-12-20T11:37:29;35.70;;;22.63;;
42096;SDS011;27754;45.414;11.084;2023-12-20T11:40:00;38.80;;;22.75;;
42096;SDS011;27754;45.414;11.084;2023-12-20T11:42:49;38.60;;;23.60;;
42096;SDS011;27754;45.414;11.084;2023-12-20T11:45:18;42.88;;;24.13;;
42096;SDS011;27754;45.414;11.084;2023-12-20T11:47:52;36.72;;;23.35;;
42096;SDS011;27754;45.414;11.084;2023-12-20T11:50:22;43.00;;;24.20;;
42096;SDS011;27754;45.414;11.084;2023-12-20T11:52:51;40.28;;;23.55;;
42096;SDS011;27754;45.414;11.084;2023-12-20T11:55:19;46.75;;;23.13;;
42096;SDS011;27754;45.414;11.084;2023-12-20T11:57:46;37.95;;;22.15;;
42096;SDS011;27754;45.414;11.084;2023-12-20T12:00:14;40.58;;;21.85;;
42096;SDS011;27754;45.414;11.084;2023-12-20T12:02:42;35.70;;;21.52;;
42096;SDS011;27754;45.414;11.084;2023-12-20T12:05:13;39.58;;;22.55;;
42096;SDS011;27754;45.414;11.084;2023-12-20T12:07:40;42.10;;;22.45;;
42096;SDS011;27754;45.414;11.084;2023-12-20T12:10:07;36.05;;;22.23;;
42096;SDS011;27754;45.414;11.084;2023-12-20T12:12:35;39.35;;;22.98;;
42096;SDS011;27754;45.414;11.084;2023-12-20T12:15:02;34.03;;;22.58;;
42096;SDS011;27754;45.414;11.084;2023-12-20T12:17:29;40.17;;;22.75;;
42096;SDS011;27754;45.414;11.084;2023-12-20T12:20:06;39.50;;;22.13;;
42096;SDS011;27754;45.414;11.084;2023-12-20T12:22:36;35.13;;;21.90;;
42096;SDS011;27754;45.414;11.084;2023-12-20T12:25:09;34.78;;;23.10;;
42096;SDS011;27754;45.414;11.084;2023-12-20T12:27:41;32.25;;;23.10;;
42096;SDS011;27754;45.414;11.084;2023-12-20T12:30:09;37.17;;;22.50;;
42096;SDS011;27754;45.414;11.084;2023-12-20T12:32:37;40.17;;;23.05;;
42096;SDS011;27754;45.414;11.084;2023-12-20T12:35:05;47.92;;;24.38;;
42096;SDS011;27754;45.414;11.084;2023-12-20T12:37:39;41.67;;;24.48;;
42096;SDS011;27754;45.414;11.084;2023-12-20T12:40:10;41.72;;;24.13;;
42096;SDS011;27754;45.414;11.084;2023-12-20T12:42:41;40.33;;;24.48;;
42096;SDS011;27754;45.414;11.084;2023-12-20T12:45:10;48.42;;;25.13;;
42096;SDS011;27754;45.414;11.084;2023-12-20T12:47:40;45.70;;;25.02;;
42096;SDS011;27754;45.414;11.084;2023-12-20T12:50:07;41.72;;;22.23;;
42096;SDS011;27754;45.414;11.084;2023-12-20T12:52:35;36.05;;;24.85;;
42096;SDS011;27754;45.414;11.084;2023-12-20T12:55:02;44.50;;;27.70;;
42096;SDS011;27754;45.414;11.084;2023-12-20T12:57:31;49.83;;;24.55;;
42096;SDS011;27754;45.414;11.084;2023-12-20T12:59:59;40.17;;;24.02;;
42096;SDS011;27754;45.414;11.084;2023-12-20T13:02:27;38.95;;;23.73;;
42096;SDS011;27754;45.414;11.084;2023-12-20T13:04:54;42.15;;;24.73;;
42096;SDS011;27754;45.414;11.084;2023-12-20T13:07:21;41.17;;;23.73;;
42096;SDS011;27754;45.414;11.084;2023-12-20T13:09:48;41.40;;;23.70;;
42096;SDS011;27754;45.414;11.084;2023-12-20T13:12:15;43.58;;;24.75;;
42096;SDS011;27754;45.414;11.084;2023-12-20T13:14:42;44.00;;;24.35;;
42096;SDS011;27754;45.414;11.084;2023-12-20T13:17:09;46.13;;;26.25;;
42096;SDS011;27754;45.414;11.084;2023-12-20T13:19:36;41.17;;;25.17;;
42096;SDS011;27754;45.414;11.084;2023-12-20T13:22:03;39.33;;;24.70;;
42096;SDS011;27754;45.414;11.084;2023-12-20T13:24:30;41.45;;;23.40;;
42096;SDS011;27754;45.414;11.084;2023-12-20T13:26:58;42.25;;;23.23;;
42096;SDS011;27754;45.414;11.084;2023-12-20T13:29:25;38.85;;;22.33;;
42096;SDS011;27754;45.414;11.084;2023-12-20T13:31:55;40.35;;;24.42;;
42096;SDS011;27754;45.414;11.084;2023-12-20T13:34:23;39.15;;;22.67;;
42096;SDS011;27754;45.414;11.084;2023-12-20T13:36:50;40.58;;;22.35;;
42096;SDS011;27754;45.414;11.084;2023-12-20T13:39:17;38.53;;;22.75;;
42096;SDS011;27754;45.414;11.084;2023-12-20T13:41:44;41.70;;;24.27;;
42096;SDS011;27754;45.414;11.084;2023-12-20T13:44:11;35.05;;;22.33;;
42096;SDS011;27754;45.414;11.084;2023-12-20T13:46:39;38.40;;;23.52;;
42096;SDS011;27754;45.414;11.084;2023-12-20T13:49:07;42.75;;;23.95;;
42096;SDS011;27754;45.414;11.084;2023-12-20T13:51:34;35.92;;;23.20;;
42096;SDS011;27754;45.414;11.084;2023-12-20T13:54:01;44.35;;;23.85;;
42096;SDS011;27754;45.414;11.084;2023-12-20T13:56:28;39.88;;;23.67;;
42096;SDS011;27754;45.414;11.084;2023-12-20T13:58:56;37.60;;;24.20;;
42096;SDS011;27754;45.414;11.084;2023-12-20T14:01:23;49.85;;;26.10;;
42096;SDS011;27754;45.414;11.084;2023-12-20T14:03:50;41.17;;;24.48;;
42096;SDS011;27754;45.414;11.084;2023-12-20T14:06:17;40.05;;;25.70;;
42096;SDS011;27754;45.414;11.084;2023-12-20T14:08:44;40.47;;;26.85;;
42096;SDS011;27754;45.414;11.084;2023-12-20T14:11:11;47.28;;;26.00;;
42096;SDS011;27754;45.414;11.084;2023-12-20T14:13:39;44.97;;;27.73;;
42096;SDS011;27754;45.414;11.084;2023-12-20T14:16:06;38.25;;;26.83;;
42096;SDS011;27754;45.414;11.084;2023-12-20T14:18:34;38.20;;;25.63;;
42096;SDS011;27754;45.414;11.084;2023-12-20T14:21:00;44.25;;;26.13;;
42096;SDS011;27754;45.414;11.084;2023-12-20T14:23:27;47.13;;;26.60;;